Share

Martin, ND

Harvey (K5H4) Elev 1608 ft | 47.79 °N, 99.93 °W | Change Station

Current weather conditions updated 21 minutes ago

Clear
Clear
66 °F
Feels Like 66 °F
N
14
Wind Variable Wind from SSW
Gusts 22 mph
Sunrise 6:42 AM
Sunset 8:37 PM
Moon Waning Gibbous

Today is forecast to be Much Warmer than yesterday.

Pressure 29.90 in
Visibility 10.0 miles
Clouds Clear
Dew Point 34 °F
Humidity 30%
Rainfall 0.00 in
Snow Depth Not available.
UV 8 out of 16
Pollen 10.80 out of 12
Air Quality Not available.
Flu Activity Sporadic
METAR K5H4 201755Z AUTO 20012G19KT 10SM CLR 19/01 A2990 RMK AO2

More Conditions Fewer Conditions

Pressure 29.90 in
Visibility 10.0 miles
Clouds Clear
Dew Point 34 °F
Humidity 30%
Rainfall 0.00 in
Snow Depth Not available.
UV 8 out of 16
Pollen 10.80 out of 12
Air Quality Not available.
Flu Activity Sporadic
METAR K5H4 201755Z AUTO 20012G19KT 10SM CLR 19/01 A2990 RMK AO2

More Conditions Fewer Conditions

10-Day Weather Forecast

Almanac

Astronomy

Apr. 20, 2014 Rise Set
Actual Time 6:42 AM CDT 8:37 PM CDT
Civil Twilight 6:09 AM CDT 9:10 PM CDT
Nautical Twilight 5:28 AM CDT 9:51 PM CDT
Astronomical Twilight 4:43 AM CDT 10:36 PM CDT
Moon 1:27 AM CDT 10:56 AM CDT
Length of Visible Light 15h 01m
Length of Day
13h 55m
Tomorrow will be 3m 14s longer.
Waning Gibbous, 68% of the Moon is Illuminated
Today
Waning Gibbous
Apr 22
Last Quarter
Apr 29
New
May 6
First Quarter
May 14
Full

Today's Extremes

State Highs State Lows

Community

  • Columbine
    Columbine
  • Easter Sunrise
    Easter Sunrise
  • Easter Eve - The Promise - Lake Palestine, TX
    Easter Eve - The Promise - Lake Palestine, TX
  • Happy Easter
    Happy Easter
  • EARLY FOGGY MORNING
    EARLY FOGGY MORNING

WunderPhotos

Upload Photos

1,703,297 photos uploaded!

WunderBlogs® & News

Nearby

Snow Depth

Station Depth Elevation
No new snow has been reported.

Coastal Water Temperatures

Place Temperature
No Stations Reporting

Earthquake Activity

City Distance Mag. Time & Date
No recent earthquake activity has been reported nearby.
Minimum magnitude displayed is 2.5.

Nearby Weather Stations

There are no personal weather stations in this area.

What do you think?

We're not finished. Please let us know what you like, what you don't like, and what you are still missing.